Time;durP1;ratioP1;P1;durP2;ratioP2;P2;SDS_P1;SDS_P2;PMS_P1;PMS_P2;Temp;Humidity;BMP_temperature;BMP_pressure;BME280_temperature;BME280_humidity;BME280_pressure;Samples;Min_cycle;Max_cycle;Signal;HPM_P1;HPM_P2
2022/03/28 00:00:55;;;;;;;;;;;;;;;-144.19;100.00;78524.50;5013176;28;19925;-83
2022/03/28 00:03:21;;;;;;;;;;;;;;;-144.19;100.00;78561.91;5012748;28;19976;-83
2022/03/28 00:05:48;;;;;;;;;;;;;;;-144.19;100.00;78556.00;4994356;28;20365;-83
2022/03/28 00:08:14;;;;;;;;;;;;;;;-144.19;100.00;78563.88;4993571;28;20032;-82
2022/03/28 00:10:40;;;;;;;;;;;;;;;-144.19;100.00;78567.81;4991526;28;19993;-82
2022/03/28 00:13:07;;;;;;;;;;;;;;;-144.19;100.00;78569.78;4991247;28;19925;-82
2022/03/28 00:15:33;;;;;;;;;;;;;;;-144.19;100.00;78587.50;4991993;28;20376;-83
2022/03/28 00:17:59;;;;;;;;;;;;;;;-144.19;100.00;78601.28;4992269;28;19945;-85
2022/03/28 00:20:26;;;;;;;;;;;;;;;-144.19;100.00;78591.44;5009039;28;20450;-85
2022/03/28 00:22:52;;;;;;;;;;;;;;;-144.19;100.00;78563.88;5011749;28;19925;-82
2022/03/28 00:25:18;;;;;;;;;;;;;;;-144.19;100.00;78571.75;5012591;28;19932;-84
2022/03/28 00:27:44;;;;;;;;;;;;;;;-144.19;100.00;78579.63;5013029;28;19926;-82
2022/03/28 00:30:11;;;;;;;;;;;;;;;-144.19;100.00;78595.38;5012533;28;20370;-84
2022/03/28 00:32:37;;;;;;;;;;;;;;;-144.19;100.00;78607.19;5009031;28;19925;-83
2022/03/28 00:35:04;;;;;;;;;;;;;;;-144.19;100.00;78601.28;5020675;28;19925;-83
2022/03/28 00:37:31;;;;;;;;;;;;;;;-144.19;100.00;78601.28;5032540;28;20031;-85
2022/03/28 00:39:57;;;;;;;;;;;;;;;-144.19;100.00;78583.56;5031341;28;19947;-83
2022/03/28 00:42:23;;;;;;;;;;;;;;;-144.19;100.00;78587.50;5031863;28;19925;-85
2022/03/28 00:44:50;;;;;;;;;;;;;;;-144.19;100.00;78607.19;5032168;28;19926;-84
2022/03/28 00:47:16;;;;;;;;;;;;;;;-144.19;100.00;78603.25;5027227;28;20311;-85
2022/03/28 00:49:42;;;;;;;;;;;;;;;-144.19;100.00;78603.25;5010958;28;19945;-82
2022/03/28 00:52:09;;;;;;;;;;;;;;;-144.19;100.00;78595.38;5008543;28;19925;-83
2022/03/28 00:54:35;;;;;;;;;;;;;;;-144.19;100.00;78607.19;4991301;28;20644;-82
2022/03/28 00:57:02;;;;;;;;;;;;;;;-144.19;100.00;78609.16;4993876;28;19936;-83
2022/03/28 00:59:32;;;;;;;;;;;;;;;-144.19;100.00;78615.09;5011684;28;20403;-84
2022/03/28 01:01:59;;;;;;;;;;;;;;;-144.19;100.00;78617.06;5000803;28;19926;-83
2022/03/28 01:04:26;;;;;;;;;;;;;;;-144.19;100.00;78626.91;4992204;28;19999;-83
2022/03/28 01:06:52;;;;;;;;;;;;;;;-144.19;100.00;78638.72;4991847;28;19926;-84
2022/03/28 01:09:19;;;;;;;;;;;;;;;-144.19;100.00;78634.78;4991278;28;19936;-85
2022/03/28 01:11:45;;;;;;;;;;;;;;;-144.19;100.00;78617.06;4990536;28;20497;-85
2022/03/28 01:14:12;;;;;;;;;;;;;;;-144.19;100.00;78615.09;4991316;28;19932;-83
2022/03/28 01:19:24;;;;;;;;;;;;;;;-144.19;100.00;78603.25;5011608;28;19939;-84
2022/03/28 01:21:54;;;;;;;;;;;;;;;-144.19;100.00;78583.56;5011823;28;20012;-86
2022/03/28 01:24:20;;;;;;;;;;;;;;;-144.19;100.00;78579.63;5010046;28;19925;-83
2022/03/28 01:26:48;;;;;;;;;;;;;;;-144.19;100.00;78577.66;5011653;28;19925;-84
2022/03/28 01:29:14;;;;;;;;;;;;;;;-144.19;100.00;78575.69;5011496;28;20371;-82
2022/03/28 01:31:41;;;;;;;;;;;;;;;-144.19;100.00;78587.50;4992299;28;20289;-82
2022/03/28 01:34:15;;;;;;;;;;;;;;;-144.19;100.00;78597.34;5001875;28;19964;-84
2022/03/28 01:36:44;;;;;;;;;;;;;;;-144.19;100.00;78585.53;5029849;28;19929;-86
2022/03/28 01:39:11;;;;;;;;;;;;;;;-144.19;100.00;78591.44;5030983;28;20299;-84
2022/03/28 01:41:37;;;;;;;;;;;;;;;-144.19;100.00;78583.56;5030600;28;19983;-83
2022/03/28 01:44:05;;;;;;;;;;;;;;;-144.19;100.00;78583.56;5028524;28;19925;-83
2022/03/28 01:46:38;;;;;;;;;;;;;;;-144.19;100.00;78603.25;5019446;28;19929;-85
2022/03/28 01:49:04;;;;;;;;;;;;;;;-144.19;100.00;78607.19;4991886;28;19925;-82
2022/03/28 01:51:31;;;;;;;;;;;;;;;-144.19;100.00;78626.91;5008510;28;19929;-84
2022/03/28 01:54:01;;;;;;;;;;;;;;;-144.19;100.00;78642.66;5010338;28;19945;-83
2022/03/28 01:56:28;;;;;;;;;;;;;;;-144.19;100.00;78630.84;5010854;28;19931;-82
2022/03/28 01:58:54;;;;;;;;;;;;;;;-144.19;100.00;78638.72;5009304;28;19925;-84
2022/03/28 02:01:20;;;;;;;;;;;;;;;-144.19;100.00;78638.72;5009372;28;19948;-86
2022/03/28 02:03:47;;;;;;;;;;;;;;;-144.19;100.00;78624.94;5002673;28;20308;-83
2022/03/28 02:06:13;;;;;;;;;;;;;;;-144.19;100.00;78619.03;4991199;28;19933;-83
2022/03/28 02:08:40;;;;;;;;;;;;;;;-144.19;100.00;78634.78;4989992;28;19925;-84
2022/03/28 02:11:06;;;;;;;;;;;;;;;-144.19;100.00;78660.38;4992987;28;19925;-84
2022/03/28 02:13:33;;;;;;;;;;;;;;;-144.19;100.00;78640.69;5008460;28;20400;-84
2022/03/28 02:16:00;;;;;;;;;;;;;;;-144.19;100.00;78626.91;5011013;28;19933;-81
2022/03/28 02:18:27;;;;;;;;;;;;;;;-144.19;100.00;78650.53;5009750;28;19925;-84
2022/03/28 02:20:54;;;;;;;;;;;;;;;-144.19;100.00;78626.91;4992832;28;19965;-84
2022/03/28 02:23:20;;;;;;;;;;;;;;;-144.19;100.00;78638.72;4990504;28;19933;-84
2022/03/28 02:25:47;;;;;;;;;;;;;;;-144.19;100.00;78664.31;4991478;28;19925;-83
2022/03/28 02:28:13;;;;;;;;;;;;;;;-144.19;100.00;78666.28;4989442;28;19925;-83
2022/03/28 02:30:39;;;;;;;;;;;;;;;-144.19;100.00;78638.72;4989124;28;19925;-83
2022/03/28 02:33:06;;;;;;;;;;;;;;;-144.19;100.00;78650.53;4990557;28;19933;-82
2022/03/28 02:35:33;;;;;;;;;;;;;;;-144.19;100.00;78674.16;4995949;28;19926;-84
2022/03/28 02:38:01;;;;;;;;;;;;;;;-144.19;100.00;78701.72;5010004;28;19925;-83
2022/03/28 02:40:28;;;;;;;;;;;;;;;-144.19;100.00;78687.94;4997779;28;19925;-83
2022/03/28 02:42:58;;;;;;;;;;;;;;;-144.19;100.00;78672.19;4989050;28;19926;-83
2022/03/28 02:45:31;;;;;;;;;;;;;;;-144.19;100.00;78644.63;4994904;28;19926;-82
2022/03/28 02:47:59;;;;;;;;;;;;;;;-144.19;100.00;78622.97;4996508;28;19980;-83
2022/03/28 02:50:25;;;;;;;;;;;;;;;-144.19;100.00;78599.31;5012853;28;20299;-84
2022/03/28 02:52:52;;;;;;;;;;;;;;;-144.19;100.00;78583.56;5013699;28;19929;-83
2022/03/28 02:55:18;;;;;;;;;;;;;;;-144.19;100.00;78583.56;5013698;28;20402;-82
2022/03/28 02:57:44;;;;;;;;;;;;;;;-144.19;100.00;78571.75;5013005;28;19932;-82
2022/03/28 03:00:11;;;;;;;;;;;;;;;-144.19;100.00;78571.75;5013537;28;19925;-82
2022/03/28 03:02:41;;;;;;;;;;;;;;;-144.19;100.00;78552.06;5010973;28;20303;-83
2022/03/28 03:05:09;;;;;;;;;;;;;;;-144.19;100.00;78567.81;4992977;28;19926;-82
2022/03/28 03:07:36;;;;;;;;;;;;;;;-144.19;100.00;78552.06;4994318;28;19926;-84
2022/03/28 03:10:03;;;;;;;;;;;;;;;-144.19;100.00;78542.22;4993134;28;20330;-84
2022/03/28 03:12:29;;;;;;;;;;;;;;;-144.19;100.00;78567.81;4992202;28;19953;-81
2022/03/28 03:14:55;;;;;;;;;;;;;;;-144.19;100.00;78567.81;4994511;28;19932;-82
2022/03/28 03:17:22;;;;;;;;;;;;;;;-144.19;100.00;78575.69;5003715;28;20380;-83
2022/03/28 03:19:48;;;;;;;;;;;;;;;-144.19;100.00;78550.09;5013913;28;19948;-84
2022/03/28 03:22:15;;;;;;;;;;;;;;;-144.19;100.00;78538.28;5011292;28;19929;-84
2022/03/28 03:24:43;;;;;;;;;;;;;;;-144.19;100.00;78532.38;5012479;28;20008;-82
2022/03/28 03:27:09;;;;;;;;;;;;;;;-144.19;100.00;78544.19;5013092;28;19940;-82
2022/03/28 03:29:36;;;;;;;;;;;;;;;-144.19;100.00;78526.47;5012430;28;19936;-85
2022/03/28 03:32:03;;;;;;;;;;;;;;;-144.19;100.00;78540.25;5002479;28;19925;-83
2022/03/28 03:34:30;;;;;;;;;;;;;;;-144.19;100.00;78524.50;5021226;28;20308;-83
2022/03/28 03:36:57;;;;;;;;;;;;;;;-144.19;100.00;78536.31;5033472;28;19925;-83
2022/03/28 03:39:26;;;;;;;;;;;;;;;-144.19;100.00;78528.44;5032075;28;19933;-80
2022/03/28 03:41:53;;;;;;;;;;;;;;;-144.19;100.00;78532.38;5032627;28;19932;-82
2022/03/28 03:44:19;;;;;;;;;;;;;;;-144.19;100.00;78540.25;5031256;28;19925;-81
2022/03/28 03:46:46;;;;;;;;;;;;;;;-144.19;100.00;78540.25;5014843;28;19926;-82
2022/03/28 03:49:15;;;;;;;;;;;;;;;-144.19;100.00;78528.44;5012107;28;19930;-84
2022/03/28 03:51:42;;;;;;;;;;;;;;;-144.19;100.00;78528.44;4993245;28;19925;-82
2022/03/28 03:54:08;;;;;;;;;;;;;;;-144.19;100.00;78536.31;4991373;28;20385;-84
2022/03/28 03:56:34;;;;;;;;;;;;;;;-144.19;100.00;78528.44;4992558;28;19936;-84
2022/03/28 03:59:01;;;;;;;;;;;;;;;-144.19;100.00;78524.50;5022819;28;19926;-81
2022/03/28 04:01:27;;;;;;;;;;;;;;;-144.19;100.00;78522.50;4992943;28;19925;-84
2022/03/28 04:03:53;;;;;;;;;;;;;;;-144.19;100.00;78522.50;4993211;28;19940;-82
2022/03/28 04:06:20;;;;;;;;;;;;;;;-144.19;100.00;78512.66;5016744;28;19925;-81
2022/03/28 04:08:47;;;;;;;;;;;;;;;-144.19;100.00;78512.66;5021248;28;19925;-80
2022/03/28 04:11:13;;;;;;;;;;;;;;;-144.19;100.00;78526.47;5022320;28;19944;-85
2022/03/28 04:13:39;;;;;;;;;;;;;;;-144.19;100.00;78528.44;5022452;28;19926;-81
2022/03/28 04:16:06;;;;;;;;;;;;;;;-144.19;100.00;78528.44;5028351;28;19945;-84
2022/03/28 04:18:32;;;;;;;;;;;;;;;-144.19;100.00;78528.44;5022318;28;19925;-83
2022/03/28 04:20:58;;;;;;;;;;;;;;;-144.19;100.00;78530.41;5011216;28;19937;-80
2022/03/28 04:23:25;;;;;;;;;;;;;;;-144.19;100.00;78528.44;4998946;28;20277;-81
2022/03/28 04:25:51;;;;;;;;;;;;;;;-144.19;100.00;78536.31;4993035;28;20376;-80
2022/03/28 04:28:17;;;;;;;;;;;;;;;-144.19;100.00;78530.41;4993244;28;19926;-81
2022/03/28 04:30:44;;;;;;;;;;;;;;;-144.19;100.00;78528.44;4992730;28;19929;-82
2022/03/28 04:33:11;;;;;;;;;;;;;;;-144.19;100.00;78520.56;4992841;28;19933;-84
2022/03/28 04:35:39;;;;;;;;;;;;;;;-144.19;100.00;78530.41;5028557;28;19932;-83
2022/03/28 04:38:06;;;;;;;;;;;;;;;-144.19;100.00;78528.44;5031064;28;19925;-82
2022/03/28 04:40:33;;;;;;;;;;;;;;;-144.19;100.00;78522.50;5031200;28;20778;-83
2022/03/28 04:43:00;;;;;;;;;;;;;;;-144.19;100.00;78516.59;5032497;28;19979;-81
2022/03/28 04:45:27;;;;;;;;;;;;;;;-144.19;100.00;78518.56;5031236;28;19932;-81
2022/03/28 04:47:54;;;;;;;;;;;;;;;-144.19;100.00;78520.56;4991593;28;20399;-81
2022/03/28 04:50:20;;;;;;;;;;;;;;;-144.19;100.00;78512.66;4991069;28;20367;-80
2022/03/28 04:52:46;;;;;;;;;;;;;;;-144.19;100.00;78514.63;4990517;28;19933;-82
2022/03/28 04:55:13;;;;;;;;;;;;;;;-144.19;100.00;78536.31;4998919;28;19925;-84
2022/03/28 04:57:39;;;;;;;;;;;;;;;-144.19;100.00;78536.31;5012238;28;19925;-82
2022/03/28 05:00:07;;;;;;;;;;;;;;;-144.19;100.00;78544.19;5011095;28;19936;-79
2022/03/28 05:02:34;;;;;;;;;;;;;;;-144.19;100.00;78556.00;5030536;28;20280;-84
2022/03/28 05:05:03;;;;;;;;;;;;;;;-144.19;100.00;78559.94;5021813;28;19932;-85
2022/03/28 05:07:30;;;;;;;;;;;;;;;-144.19;100.00;78567.81;5010364;28;19925;-83
2022/03/28 05:09:57;;;;;;;;;;;;;;;-144.19;100.00;78559.94;5012935;28;19925;-83
2022/03/28 05:12:23;;;;;;;;;;;;;;;-144.19;100.00;78552.06;5010701;28;19925;-83
2022/03/28 05:14:50;;;;;;;;;;;;;;;-144.19;100.00;78559.94;5012742;28;19932;-83
2022/03/28 05:17:35;;;;;;;;;;;;;;;-144.19;100.00;78550.09;5013276;28;19948;-83
2022/03/28 05:20:01;;;;;;;;;;;;;;;-144.19;100.00;78548.13;5012732;28;19932;-85
2022/03/28 05:22:27;;;;;;;;;;;;;;;-144.19;100.00;78544.19;5011611;28;19976;-85
2022/03/28 05:24:54;;;;;;;;;;;;;;;-144.19;100.00;78548.13;5012715;28;19991;-85
2022/03/28 05:27:21;;;;;;;;;;;;;;;-144.19;100.00;78557.97;5012601;28;19926;-83
2022/03/28 05:29:47;;;;;;;;;;;;;;;-144.19;100.00;78544.19;5013587;28;19933;-85
2022/03/28 05:32:14;;;;;;;;;;;;;;;-144.19;100.00;78557.97;5013194;28;20433;-85
2022/03/28 05:34:41;;;;;;;;;;;;;;;-144.19;100.00;78550.09;5024250;28;20319;-83
2022/03/28 05:37:11;;;;;;;;;;;;;;;-144.19;100.00;78565.84;5034688;28;20267;-84
2022/03/28 05:39:39;;;;;;;;;;;;;;;-144.19;100.00;78559.94;5032764;28;19925;-85
2022/03/28 05:42:05;;;;;;;;;;;;;;;-144.19;100.00;78542.22;5032083;28;19925;-83
2022/03/28 05:44:33;;;;;;;;;;;;;;;-144.19;100.00;78546.16;5032667;28;20287;-85
2022/03/28 05:46:59;;;;;;;;;;;;;;;-144.19;100.00;78563.88;5034238;28;19929;-84
2022/03/28 05:49:26;;;;;;;;;;;;;;;-144.19;100.00;78552.06;5041996;28;19975;-82
2022/03/28 05:51:52;;;;;;;;;;;;;;;-144.19;100.00;78542.22;5037607;28;20056;-86
2022/03/28 05:54:19;;;;;;;;;;;;;;;-144.19;100.00;78556.00;5034025;28;19925;-87
2022/03/28 05:56:46;;;;;;;;;;;;;;;-144.19;100.00;78548.13;5032367;28;19925;-85
2022/03/28 05:59:12;;;;;;;;;;;;;;;-144.19;100.00;78554.03;5032701;28;19925;-85
2022/03/28 06:01:39;;;;;;;;;;;;;;;-144.19;100.00;78561.91;5031692;28;19925;-85
2022/03/28 06:04:05;;;;;;;;;;;;;;;-144.19;100.00;78540.25;5032386;28;20417;-84
2022/03/28 06:06:32;;;;;;;;;;;;;;;-144.19;100.00;78540.25;5032836;28;20012;-84
2022/03/28 06:08:59;;;;;;;;;;;;;;;-144.19;100.00;78540.25;5031587;28;20277;-87
2022/03/28 06:11:25;;;;;;;;;;;;;;;-144.19;100.00;78540.25;5032430;28;19944;-85
2022/03/28 06:13:53;;;;;;;;;;;;;;;-144.19;100.00;78532.38;5031795;28;19925;-84
2022/03/28 06:16:20;;;;;;;;;;;;;;;-144.19;100.00;78528.44;5033361;28;19932;-84
2022/03/28 06:18:46;;;;;;;;;;;;;;;-144.19;100.00;78542.22;5031611;28;20318;-86
2022/03/28 06:21:13;;;;;;;;;;;;;;;-144.19;100.00;78546.16;5031638;28;19931;-86
2022/03/28 06:23:39;;;;;;;;;;;;;;;-144.19;100.00;78548.13;5030743;28;19932;-86
2022/03/28 06:26:05;;;;;;;;;;;;;;;-144.19;100.00;78528.44;5033743;28;20279;-89
2022/03/28 06:28:33;;;;;;;;;;;;;;;-144.19;100.00;78528.44;5032163;28;19943;-85
2022/03/28 06:30:59;;;;;;;;;;;;;;;-144.19;100.00;78520.56;5033059;28;20375;-86
2022/03/28 06:33:25;;;;;;;;;;;;;;;-144.19;100.00;78532.38;5030295;28;20368;-86
2022/03/28 06:35:52;;;;;;;;;;;;;;;-144.19;100.00;78536.31;5012467;28;19925;-87
2022/03/28 06:38:19;;;;;;;;;;;;;;;-144.19;100.00;78538.28;5012086;28;19932;-86
2022/03/28 06:40:45;;;;;;;;;;;;;;;-144.19;100.00;78522.50;5011532;28;19925;-85
2022/03/28 06:43:11;;;;;;;;;;;;;;;-144.19;100.00;78504.78;5012480;28;19926;-84
2022/03/28 06:45:38;;;;;;;;;;;;;;;-144.19;100.00;78508.72;5012744;28;19925;-85
2022/03/28 06:48:04;;;;;;;;;;;;;;;-144.19;100.00;78516.59;5011405;28;19929;-83
2022/03/28 06:50:51;;;;;;;;;;;;;;;-144.19;100.00;78520.56;5012052;28;19933;-85
2022/03/28 06:53:17;;;;;;;;;;;;;;;-144.19;100.00;78536.31;5011855;28;19933;-83
2022/03/28 06:55:44;;;;;;;;;;;;;;;-144.19;100.00;78528.44;5011385;28;19929;-83
2022/03/28 06:58:11;;;;;;;;;;;;;;;-144.19;100.00;78516.59;5011608;28;19926;-85
2022/03/28 07:00:37;;;;;;;;;;;;;;;-144.19;100.00;78498.88;5012186;28;20383;-84
2022/03/28 07:03:05;;;;;;;;;;;;;;;-144.19;100.00;78500.84;5011318;28;19929;-87
2022/03/28 07:05:32;;;;;;;;;;;;;;;-144.19;100.00;78502.81;5013129;28;20393;-85
2022/03/28 07:08:04;;;;;;;;;;;;;;;-144.19;100.00;78485.09;5033032;22;22333;-85
2022/03/28 07:10:31;;;;;;;;;;;;;;;-144.19;100.00;78477.22;4999730;28;19930;-86
2022/03/28 07:12:59;;;;;;;;;;;;;;;-144.19;100.00;78469.34;5013886;28;19941;-85
2022/03/28 07:15:27;;;;;;;;;;;;;;;-144.19;100.00;78485.09;5000177;28;20001;-86
2022/03/28 07:17:57;;;;;;;;;;;;;;;-144.19;100.00;78477.22;5000035;28;19930;-85
2022/03/28 07:20:29;;;;;;;;;;;;;;;-144.19;100.00;78449.66;4999426;28;19926;-84
2022/03/28 07:22:59;;;;;;;;;;;;;;;-144.19;100.00;78465.41;4999179;28;20363;-85
2022/03/28 07:25:29;;;;;;;;;;;;;;;-144.19;100.00;78441.78;5000919;28;20288;-85
2022/03/28 07:27:57;;;;;;;;;;;;;;;-144.19;100.00;78461.47;5000242;28;19926;-85
2022/03/28 07:30:26;;;;;;;;;;;;;;;-144.19;100.00;78449.66;5003753;28;20244;-85
2022/03/28 07:32:54;;;;;;;;;;;;;;;-144.19;100.00;78426.03;5005122;28;19930;-86
2022/03/28 07:35:25;;;;;;;;;;;;;;;-144.19;100.00;78414.19;5005350;28;19926;-86
2022/03/28 07:37:53;;;;;;;;;;;;;;;-144.19;100.00;78422.09;5019559;28;19926;-86
2022/03/28 07:40:24;;;;;;;;;;;;;;;-144.19;100.00;78414.19;5020871;28;19972;-85
2022/03/28 07:42:53;;;;;;;;;;;;;;;-144.19;100.00;78416.19;5005018;28;19936;-85
2022/03/28 07:45:30;;;;;;;;;;;;;;;-144.19;100.00;78390.56;5004215;28;19929;-86
2022/03/28 07:48:07;;;;;;;;;;;;;;;-144.19;100.00;78382.69;5005931;28;20379;-85
2022/03/28 07:50:39;;;;;;;;;;;;;;;-144.19;100.00;78370.88;5010364;28;19926;-86
2022/03/28 07:53:06;;;;;;;;;;;;;;;-144.19;100.00;78392.53;5008592;28;20017;-85
2022/03/28 07:55:32;;;;;;;;;;;;;;;-144.19;100.00;78398.44;5000566;28;20013;-85
2022/03/28 07:58:02;;;;;;;;;;;;;;;-144.19;100.00;78378.75;5000189;28;20060;-85
2022/03/28 08:00:29;;;;;;;;;;;;;;;-144.19;100.00;78351.19;4998394;28;20036;-85
2022/03/28 08:02:56;;;;;;;;;;;;;;;-144.19;100.00;78331.50;4996566;28;19933;-86
2022/03/28 08:05:24;;;;;;;;;;;;;;;-144.19;100.00;78339.38;4998535;28;19976;-87
2022/03/28 08:07:50;;;;;;;;;;;;;;;-144.19;100.00;78351.19;4995790;28;19930;-86
2022/03/28 08:10:17;;;;;;;;;;;;;;;-144.19;100.00;78361.03;4996625;28;19926;-86
2022/03/28 08:12:44;;;;;;;;;;;;;;;-144.19;100.00;78343.31;4997622;28;20387;-86
2022/03/28 08:15:11;;;;;;;;;;;;;;;-144.19;100.00;78351.19;4994965;28;20402;-84
2022/03/28 08:17:39;;;;;;;;;;;;;;;-144.19;100.00;78351.19;4994658;28;20304;-85
2022/03/28 08:20:06;;;;;;;;;;;;;;;-144.19;100.00;78331.50;4993936;28;19930;-86
2022/03/28 08:22:37;;;;;;;;;;;;;;;-144.19;100.00;78307.88;4996507;28;20399;-86
2022/03/28 08:25:04;;;;;;;;;;;;;;;-144.19;100.00;78288.16;5000067;28;19981;-85
2022/03/28 08:27:30;;;;;;;;;;;;;;;-144.19;100.00;78288.16;4993822;28;19944;-86
2022/03/28 08:29:57;;;;;;;;;;;;;;;-144.19;100.00;78272.41;4991534;28;19933;-87
2022/03/28 08:32:23;;;;;;;;;;;;;;;-144.19;100.00;78258.63;4993754;28;20300;-86
2022/03/28 08:34:50;;;;;;;;;;;;;;;-144.19;100.00;78256.66;4995102;28;19925;-86
2022/03/28 08:37:18;;;;;;;;;;;;;;;-144.19;100.00;78258.63;4987162;28;19941;-86
2022/03/28 08:39:45;;;;;;;;;;;;;;;-144.19;100.00;78240.91;4994671;28;19933;-87
2022/03/28 08:42:12;;;;;;;;;;;;;;;-144.19;100.00;78240.91;4987762;28;19930;-87
2022/03/28 08:44:39;;;;;;;;;;;;;;;-144.19;100.00;78238.94;5000886;28;19926;-86
2022/03/28 08:47:08;;;;;;;;;;;;;;;-144.19;100.00;78233.03;4991820;28;19932;-86
2022/03/28 08:49:35;;;;;;;;;;;;;;;-144.19;100.00;78217.28;4983579;28;19925;-86
2022/03/28 08:52:03;;;;;;;;;;;;;;;-144.19;100.00;78209.41;4993282;28;19925;-88
2022/03/28 08:54:29;;;;;;;;;;;;;;;-144.19;100.00;78181.84;5004621;28;19926;-84
2022/03/28 08:56:56;;;;;;;;;;;;;;;-144.19;100.00;78189.72;5006647;28;19925;-84
2022/03/28 08:59:27;;;;;;;;;;;;;;;-144.19;100.00;78189.72;5005527;28;19929;-87
2022/03/28 09:01:54;;;;;;;;;;;;;;;-144.19;100.00;78193.66;5004755;28;20037;-86
2022/03/28 09:04:22;;;;;;;;;;;;;;;-144.19;100.00;78201.53;4994389;28;19965;-85
2022/03/28 09:06:51;;;;;;;;;;;;;;;-144.19;100.00;78154.25;4996708;28;19925;-85
2022/03/28 09:09:27;;;;;;;;;;;;;;;-144.19;100.00;78156.22;5001672;28;19961;-85
2022/03/28 09:11:55;;;;;;;;;;;;;;;-144.19;100.00;78134.56;5004194;28;19930;-86
2022/03/28 09:14:37;;;;;;;;;;;;;;;-144.19;100.00;78154.25;5004302;28;19926;-84
2022/03/28 09:17:31;;;;;;;;;;;;;;;-144.19;100.00;78166.06;5003684;28;19926;-84
2022/03/28 09:20:02;;;;;;;;;;;;;;;-144.19;100.00;78132.59;5002067;28;19932;-85
2022/03/28 09:22:37;;;;;;;;;;;;;;;-144.19;100.00;78124.72;5021878;28;19925;-85
2022/03/28 09:25:06;;;;;;;;;;;;;;;-144.19;100.00;78209.41;5028227;28;19949;-84
2022/03/28 09:27:49;;;;;;;;;;;;;;;-144.19;100.00;78185.78;5021118;28;19976;-85
2022/03/28 09:30:33;;;;;;;;;;;;;;;-144.19;100.00;78181.84;5001324;28;19926;-84
2022/03/28 09:33:03;;;;;;;;;;;;;;;-144.19;100.00;78185.78;4999904;28;19926;-85
2022/03/28 09:35:35;;;;;;;;;;;;;;;-144.19;100.00;78227.13;5001514;28;19930;-85
2022/03/28 09:38:08;;;;;;;;;;;;;;;-144.19;100.00;78193.66;5005068;28;19926;-87
2022/03/28 09:40:51;;;;;;;;;;;;;;;-144.19;100.00;78140.47;5008996;28;19953;-88
2022/03/28 09:46:24;;;;;;;;;;;;;;;-144.19;100.00;78116.84;5001020;28;19926;-87
2022/03/28 09:52:29;;;;;;;;;;;;;;;-144.19;100.00;78093.22;4962690;28;20030;-87
2022/03/28 09:55:17;;;;;;;;;;;;;;;;;;;;;
2022/03/28 10:04:50;;;;;;;;;;;;;;;-144.19;100.00;78004.59;4968695;28;19941;-87
2022/03/28 10:07:38;;;;;;;;;;;;;;;-144.19;100.00;77963.25;4999715;28;19926;-88
2022/03/28 10:10:12;;;;;;;;;;;;;;;-144.19;100.00;77953.41;5006761;28;20418;-87
2022/03/28 10:12:53;;;;;;;;;;;;;;;-144.19;100.00;77992.78;5004067;28;19930;-86
2022/03/28 10:22:11;;;;;;;;;;;;;;;-144.19;100.00;77949.47;4987753;28;19997;-87
2022/03/28 10:24:46;;;;;;;;;;;;;;;-144.19;100.00;77933.72;5023783;28;19940;-87
2022/03/28 10:27:27;;;;;;;;;;;;;;;-144.19;100.00;77959.31;4981241;28;19969;-86
2022/03/28 10:30:08;;;;;;;;;;;;;;;-144.19;100.00;77935.69;5028274;28;19936;-87
2022/03/28 10:32:42;;;;;;;;;;;;;;;-144.19;100.00;77906.16;5012525;28;19920;-86
2022/03/28 10:35:16;;;;;;;;;;;;;;;-144.19;100.00;77886.47;4994374;28;19957;-87
2022/03/28 10:38:13;;;;;;;;;;;;;;;-144.19;100.00;77921.91;4973584;28;19926;-88
2022/03/28 10:40:57;;;;;;;;;;;;;;;-144.19;100.00;77916.00;4979552;28;19992;-87
2022/03/28 10:43:28;;;;;;;;;;;;;;;-144.19;100.00;77898.28;4973414;28;19961;-86
2022/03/28 10:45:56;;;;;;;;;;;;;;;-144.19;100.00;77921.91;4979855;28;19930;-89
2022/03/28 10:48:36;;;;;;;;;;;;;;;-144.19;100.00;77912.06;4991930;28;19937;-85
2022/03/28 10:51:05;;;;;;;;;;;;;;;-144.19;100.00;77874.66;4981138;28;20395;-87
2022/03/28 10:53:37;;;;;;;;;;;;;;;-144.19;100.00;77886.47;5010520;28;19933;-87
2022/03/28 10:56:05;;;;;;;;;;;;;;;-144.19;100.00;77894.34;5012070;28;19941;-87
2022/03/28 10:58:35;;;;;;;;;;;;;;;-144.19;100.00;77917.97;4999202;28;19926;-87
2022/03/28 11:01:11;;;;;;;;;;;;;;;-144.19;100.00;77914.03;5000061;28;19948;-88
2022/03/28 11:03:37;;;;;;;;;;;;;;;-144.19;100.00;77884.50;5012139;28;19925;-87
2022/03/28 11:06:05;;;;;;;;;;;;;;;-144.19;100.00;77864.81;5014649;28;19933;-87
2022/03/28 11:08:39;;;;;;;;;;;;;;;-144.19;100.00;77831.31;5024364;28;20016;-89
2022/03/28 11:11:38;;;;;;;;;;;;;;;-144.19;100.00;77815.56;5029843;28;19925;-86
2022/03/28 11:14:29;;;;;;;;;;;;;;;-144.19;100.00;77780.13;5027952;28;19949;-87
2022/03/28 11:17:17;;;;;;;;;;;;;;;-144.19;100.00;77858.91;5026839;28;20020;-87
2022/03/28 11:23:15;;;;;;;;;;;;;;;-144.19;100.00;77811.63;4977526;28;20010;-87
2022/03/28 11:25:46;;;;;;;;;;;;;;;-144.19;100.00;77799.81;4988342;28;19926;-87
2022/03/28 11:28:23;;;;;;;;;;;;;;;-144.19;100.00;77789.97;4988169;28;19930;-87
2022/03/28 11:31:12;;;;;;;;;;;;;;;-144.19;100.00;77768.31;4989634;28;19975;-87
2022/03/28 11:36:50;;;;;;;;;;;;;;;-144.19;100.00;77736.81;4999074;28;19926;-86
2022/03/28 11:39:25;;;;;;;;;;;;;;;-144.19;100.00;77681.69;5007275;28;19925;-88
2022/03/28 11:42:23;;;;;;;;;;;;;;;;;;;;;
2022/03/28 11:44:51;;;;;;;;;;;;;;;-144.19;100.00;77610.81;5026249;28;20344;-87
2022/03/28 11:47:22;;;;;;;;;;;;;;;-144.19;100.00;77587.19;5026058;28;19925;-87
2022/03/28 11:50:20;;;;;;;;;;;;;;;-144.19;100.00;77537.94;5007737;28;19936;-86
2022/03/28 11:52:50;;;;;;;;;;;;;;;-144.19;100.00;77662.00;5005819;28;19926;-86
2022/03/28 11:55:29;;;;;;;;;;;;;;;-144.19;100.00;77547.78;5008033;28;19984;-87
2022/03/28 11:58:15;;;;;;;;;;;;;;;-144.19;100.00;77419.81;5004387;28;19952;-86
2022/03/28 12:00:48;;;;;;;;;;;;;;;-144.19;100.00;77364.69;5010555;28;19926;-87
2022/03/28 12:03:22;;;;;;;;;;;;;;;-144.19;100.00;77378.47;5003556;28;19954;-86
2022/03/28 12:06:08;;;;;;;;;;;;;;;-144.19;100.00;77370.59;4999035;28;20016;-85
2022/03/28 12:08:40;;;;;;;;;;;;;;;-144.19;100.00;77335.16;5004454;28;19926;-87
2022/03/28 12:11:15;;;;;;;;;;;;;;;-144.19;100.00;77323.34;5003092;28;19926;-86
2022/03/28 12:13:42;;;;;;;;;;;;;;;-144.19;100.00;77311.53;5002634;28;19930;-86
2022/03/28 12:16:12;;;;;;;;;;;;;;;-144.19;100.00;77224.91;5005514;28;19937;-87
2022/03/28 12:18:42;;;;;;;;;;;;;;;-144.19;100.00;77226.88;5003812;28;19937;-86
2022/03/28 12:21:09;;;;;;;;;;;;;;;-144.19;100.00;77201.28;5002780;28;19937;-86
2022/03/28 12:23:45;;;;;;;;;;;;;;;-144.19;100.00;77098.91;5007604;28;20013;-86
2022/03/28 12:26:15;;;;;;;;;;;;;;;-144.19;100.00;77079.22;5008974;28;19936;-87
2022/03/28 12:28:45;;;;;;;;;;;;;;;-144.19;100.00;76941.44;5005553;28;20016;-85
2022/03/28 12:31:24;;;;;;;;;;;;;;;-144.19;100.00;76909.94;5019859;28;20450;-86
2022/03/28 12:33:54;;;;;;;;;;;;;;;-144.19;100.00;77104.81;5027393;28;19953;-85
2022/03/28 12:36:28;;;;;;;;;;;;;;;-144.19;100.00;77075.28;5026075;28;19926;-86
2022/03/28 12:39:04;;;;;;;;;;;;;;;-144.19;100.00;77079.22;5030771;28;19936;-87
2022/03/28 12:41:38;;;;;;;;;;;;;;;-144.19;100.00;77079.22;5014246;28;19941;-88
2022/03/28 12:44:12;;;;;;;;;;;;;;;-144.19;100.00;76972.94;5010730;28;19993;-88
2022/03/28 12:46:38;;;;;;;;;;;;;;;-144.19;100.00;76992.59;5001546;28;19927;-84
2022/03/28 12:49:13;;;;;;;;;;;;;;;-144.19;100.00;77024.09;5002881;28;20024;-86
2022/03/28 12:51:40;;;;;;;;;;;;;;;-144.19;100.00;77067.41;5017485;28;19997;-87
2022/03/28 12:54:09;;;;;;;;;;;;;;;-144.19;100.00;77114.66;5018093;28;19929;-87
2022/03/28 12:56:45;;;;;;;;;;;;;;;-144.19;100.00;77142.22;5015517;28;20016;-86
2022/03/28 12:59:32;;;;;;;;;;;;;;;;;;;;;
2022/03/28 13:02:10;;;;;;;;;;;;;;;-144.19;100.00;77106.78;4983562;28;20129;-87